Time;durP1;ratioP1;P1;durP2;ratioP2;P2;SDS_P1;SDS_P2;PMS_P1;PMS_P2;Temp;Humidity;BMP_temperature;BMP_pressure;BME280_temperature;BME280_humidity;BME280_pressure;Samples;Min_cycle;Max_cycle;Signal;HPM_P1;HPM_P2
2024/01/26 00:02:00;;;;;;;159.60;47.37;;;;;;;;;;5048708;28;20139;-63
2024/01/26 00:04:26;;;;;;;180.70;50.57;;;;;;;;;;5047233;28;20388;-64
2024/01/26 00:06:52;;;;;;;161.87;46.87;;;;;;;;;;5048757;28;20048;-64
2024/01/26 00:09:18;;;;;;;132.40;45.00;;;;;;;;;;5048095;28;20045;-63
2024/01/26 00:11:44;;;;;;;159.80;45.13;;;;;;;;;;5047240;28;20401;-63
2024/01/26 00:14:10;;;;;;;117.90;41.13;;;;;;;;;;5048348;28;20045;-64
2024/01/26 00:16:37;;;;;;;143.60;45.40;;;;;;;;;;5048505;28;20048;-63
2024/01/26 00:19:06;;;;;;;133.20;43.53;;;;;;;;;;5052845;28;20049;-63
2024/01/26 00:21:33;;;;;;;180.23;46.87;;;;;;;;;;5052743;28;20037;-63
2024/01/26 00:23:59;;;;;;;150.07;45.27;;;;;;;;;;5052454;28;20419;-63
2024/01/26 00:26:25;;;;;;;178.63;47.83;;;;;;;;;;5052364;28;20052;-64
2024/01/26 00:28:51;;;;;;;157.07;47.17;;;;;;;;;;5052536;28;20041;-63
2024/01/26 00:31:18;;;;;;;128.70;41.77;;;;;;;;;;5052070;28;20049;-64
2024/01/26 00:33:44;;;;;;;128.80;42.03;;;;;;;;;;5051572;28;20090;-63
2024/01/26 00:36:10;;;;;;;165.53;47.57;;;;;;;;;;5051923;28;20128;-64
2024/01/26 00:38:36;;;;;;;95.93;36.30;;;;;;;;;;5052237;28;20056;-63
2024/01/26 00:41:02;;;;;;;96.60;38.40;;;;;;;;;;5051618;28;20048;-63
2024/01/26 00:43:28;;;;;;;131.43;41.40;;;;;;;;;;5051891;28;20507;-63
2024/01/26 00:45:54;;;;;;;125.40;42.47;;;;;;;;;;5051998;28;20063;-63
2024/01/26 00:48:20;;;;;;;114.03;40.43;;;;;;;;;;5051849;28;20057;-63
2024/01/26 00:50:49;;;;;;;110.17;38.43;;;;;;;;;;5052013;28;20140;-63
2024/01/26 00:53:16;;;;;;;108.03;38.23;;;;;;;;;;5051808;28;20522;-63
2024/01/26 00:55:42;;;;;;;111.70;38.27;;;;;;;;;;5051727;28;20041;-63
2024/01/26 00:58:08;;;;;;;108.87;39.10;;;;;;;;;;5051673;28;20106;-63
2024/01/26 01:00:34;;;;;;;86.37;35.37;;;;;;;;;;5051589;28;20057;-63
2024/01/26 01:03:00;;;;;;;112.83;39.13;;;;;;;;;;5051478;28;20048;-63
2024/01/26 01:05:26;;;;;;;115.60;40.23;;;;;;;;;;5050586;28;20450;-63
2024/01/26 01:07:52;;;;;;;102.67;38.33;;;;;;;;;;5051380;28;20048;-63
2024/01/26 01:10:18;;;;;;;119.67;40.80;;;;;;;;;;5051959;28;20053;-63
2024/01/26 01:12:44;;;;;;;86.30;36.63;;;;;;;;;;5051959;28;20518;-63
2024/01/26 01:15:14;;;;;;;87.63;35.97;;;;;;;;;;5050991;28;20514;-63
2024/01/26 01:17:40;;;;;;;88.73;34.63;;;;;;;;;;5051511;28;20766;-63
2024/01/26 01:20:08;;;;;;;82.97;35.03;;;;;;;;;;5051233;28;20045;-63
2024/01/26 01:22:34;;;;;;;78.27;32.97;;;;;;;;;;5051695;28;20052;-63
2024/01/26 01:25:01;;;;;;;70.20;31.83;;;;;;;;;;5051791;28;20040;-63
2024/01/26 01:27:27;;;;;;;70.63;32.03;;;;;;;;;;5051331;28;20070;-63
2024/01/26 01:29:53;;;;;;;72.07;31.83;;;;;;;;;;5049723;28;20602;-63
2024/01/26 01:32:19;;;;;;;68.73;31.77;;;;;;;;;;5050941;28;20045;-63
2024/01/26 01:34:45;;;;;;;71.90;32.70;;;;;;;;;;5051287;28;20076;-63
2024/01/26 01:37:11;;;;;;;66.20;31.77;;;;;;;;;;5050996;28;20091;-63
2024/01/26 01:39:37;;;;;;;61.70;28.90;;;;;;;;;;5050374;28;20080;-63
2024/01/26 01:42:03;;;;;;;87.33;34.57;;;;;;;;;;5050534;28;20048;-63
2024/01/26 01:44:30;;;;;;;61.37;28.77;;;;;;;;;;5050672;28;20052;-63
2024/01/26 01:46:56;;;;;;;63.03;29.07;;;;;;;;;;5051054;28;20057;-63
2024/01/26 01:49:24;;;;;;;60.50;28.37;;;;;;;;;;5050885;28;20089;-63
2024/01/26 01:51:51;;;;;;;52.87;26.90;;;;;;;;;;5049665;28;20131;-63
2024/01/26 01:54:19;;;;;;;75.50;29.97;;;;;;;;;;5050577;28;20041;-64
2024/01/26 01:56:45;;;;;;;58.33;28.00;;;;;;;;;;5050965;28;20080;-64
2024/01/26 01:59:12;;;;;;;55.67;27.13;;;;;;;;;;5050130;28;20394;-63
2024/01/26 02:01:38;;;;;;;57.90;27.10;;;;;;;;;;5050833;28;20049;-63
2024/01/26 02:04:05;;;;;;;55.23;26.63;;;;;;;;;;5050133;28;20048;-63
2024/01/26 02:06:31;;;;;;;49.03;25.00;;;;;;;;;;5051211;28;20500;-63
2024/01/26 02:08:57;;;;;;;54.10;26.27;;;;;;;;;;5050545;28;20049;-63
2024/01/26 02:11:23;;;;;;;44.57;24.27;;;;;;;;;;5050087;28;20040;-63
2024/01/26 02:13:49;;;;;;;51.30;24.83;;;;;;;;;;5050377;28;20045;-63
2024/01/26 02:16:15;;;;;;;55.03;25.77;;;;;;;;;;5048394;28;20102;-63
2024/01/26 02:18:41;;;;;;;50.17;24.20;;;;;;;;;;5050901;28;20041;-63
2024/01/26 02:21:07;;;;;;;43.07;24.27;;;;;;;;;;5049787;28;20048;-63
2024/01/26 02:23:33;;;;;;;52.33;23.70;;;;;;;;;;5047960;28;20078;-63
2024/01/26 02:25:59;;;;;;;41.70;23.10;;;;;;;;;;5048447;28;20132;-63
2024/01/26 02:28:25;;;;;;;47.43;24.43;;;;;;;;;;5048121;28;20045;-63
2024/01/26 02:30:51;;;;;;;39.93;22.30;;;;;;;;;;5048505;28;21711;-63
2024/01/26 02:33:17;;;;;;;41.23;22.83;;;;;;;;;;5048981;28;20079;-64
2024/01/26 02:35:43;;;;;;;45.60;23.33;;;;;;;;;;5048924;28;20483;-63
2024/01/26 02:38:09;;;;;;;35.67;22.87;;;;;;;;;;5049508;28;20044;-64
2024/01/26 02:40:35;;;;;;;50.73;25.53;;;;;;;;;;5048950;28;20037;-63
2024/01/26 02:43:01;;;;;;;40.77;23.23;;;;;;;;;;5050276;28;20052;-63
2024/01/26 02:45:27;;;;;;;37.43;23.20;;;;;;;;;;5049648;28;20410;-63
2024/01/26 02:47:54;;;;;;;40.33;23.53;;;;;;;;;;5050462;28;20052;-63
2024/01/26 02:50:20;;;;;;;41.43;25.37;;;;;;;;;;5050334;28;20132;-63
2024/01/26 02:52:46;;;;;;;44.53;24.70;;;;;;;;;;5049510;28;20128;-64
2024/01/26 02:55:12;;;;;;;40.90;25.23;;;;;;;;;;5049630;28;20128;-63
2024/01/26 02:57:38;;;;;;;47.57;25.40;;;;;;;;;;5049779;28;20045;-63
2024/01/26 03:00:07;;;;;;;43.00;23.83;;;;;;;;;;5049072;28;20495;-63
2024/01/26 03:02:33;;;;;;;40.80;23.23;;;;;;;;;;5049645;28;20565;-63
2024/01/26 03:04:59;;;;;;;45.70;25.33;;;;;;;;;;5049189;28;20041;-63
2024/01/26 03:07:25;;;;;;;40.87;24.17;;;;;;;;;;5049531;28;20080;-64
2024/01/26 03:09:51;;;;;;;44.47;25.27;;;;;;;;;;5049578;28;20067;-63
2024/01/26 03:12:17;;;;;;;41.20;24.30;;;;;;;;;;5048504;28;20604;-63
2024/01/26 03:14:43;;;;;;;45.77;25.33;;;;;;;;;;5049561;28;20047;-63
2024/01/26 03:17:09;;;;;;;45.20;26.10;;;;;;;;;;5048950;28;20045;-63
2024/01/26 03:19:36;;;;;;;46.77;25.43;;;;;;;;;;5049136;28;20044;-63
2024/01/26 03:22:02;;;;;;;46.47;25.70;;;;;;;;;;5049103;28;20060;-63
2024/01/26 03:24:29;;;;;;;47.57;25.83;;;;;;;;;;5049075;28;20136;-63
2024/01/26 03:26:55;;;;;;;50.80;25.90;;;;;;;;;;5049116;28;20483;-64
2024/01/26 03:29:21;;;;;;;39.67;25.23;;;;;;;;;;5048726;28;20139;-63
2024/01/26 03:31:47;;;;;;;45.43;25.00;;;;;;;;;;5048876;28;20507;-63
2024/01/26 03:34:13;;;;;;;38.63;23.47;;;;;;;;;;5048816;28;20084;-63
2024/01/26 03:36:39;;;;;;;34.73;20.93;;;;;;;;;;5048674;28;20091;-63
2024/01/26 03:39:05;;;;;;;41.50;23.80;;;;;;;;;;5048447;28;20219;-63
2024/01/26 03:41:31;;;;;;;45.43;24.73;;;;;;;;;;5049047;28;20554;-63
2024/01/26 03:43:57;;;;;;;40.03;22.70;;;;;;;;;;5048743;28;20052;-64
2024/01/26 03:46:23;;;;;;;48.50;23.90;;;;;;;;;;5046893;28;20495;-63
2024/01/26 03:48:49;;;;;;;48.17;24.00;;;;;;;;;;5046902;28;20059;-64
2024/01/26 03:51:15;;;;;;;48.30;25.20;;;;;;;;;;5048384;28;20044;-63
2024/01/26 03:53:41;;;;;;;46.70;23.47;;;;;;;;;;5049027;28;20381;-64
2024/01/26 03:56:07;;;;;;;49.97;26.00;;;;;;;;;;5048685;28;20041;-64
2024/01/26 03:58:33;;;;;;;39.87;23.23;;;;;;;;;;5048674;28;20041;-63
2024/01/26 04:01:00;;;;;;;42.17;25.63;;;;;;;;;;5048359;28;20052;-63
2024/01/26 04:03:26;;;;;;;52.50;25.10;;;;;;;;;;5048684;28;20060;-63
2024/01/26 04:05:52;;;;;;;42.00;24.57;;;;;;;;;;5048796;28;20122;-63
2024/01/26 04:08:18;;;;;;;45.27;24.10;;;;;;;;;;5048424;28;20416;-63
2024/01/26 04:10:44;;;;;;;43.63;24.17;;;;;;;;;;5048814;28;20392;-63
2024/01/26 04:13:10;;;;;;;40.57;23.53;;;;;;;;;;5047706;28;20060;-63
2024/01/26 04:15:37;;;;;;;42.77;24.77;;;;;;;;;;5048200;28;20037;-64
2024/01/26 04:18:03;;;;;;;41.50;22.67;;;;;;;;;;5047827;28;20535;-63
2024/01/26 04:20:29;;;;;;;43.37;22.57;;;;;;;;;;5048795;28;20044;-63
2024/01/26 04:22:55;;;;;;;44.50;25.03;;;;;;;;;;5047909;28;20470;-64
2024/01/26 04:25:21;;;;;;;43.27;24.17;;;;;;;;;;5048713;28;20057;-64
2024/01/26 04:27:47;;;;;;;47.70;24.80;;;;;;;;;;5048364;28;20136;-64
2024/01/26 04:30:14;;;;;;;40.00;24.00;;;;;;;;;;5048335;28;20178;-64
2024/01/26 04:32:40;;;;;;;41.30;25.03;;;;;;;;;;5046578;28;20056;-64
2024/01/26 04:35:06;;;;;;;43.33;26.40;;;;;;;;;;5048206;28;20045;-64
2024/01/26 04:37:32;;;;;;;48.13;27.10;;;;;;;;;;5048579;28;20067;-64
2024/01/26 04:39:58;;;;;;;43.80;25.37;;;;;;;;;;5047480;28;20049;-64
2024/01/26 04:42:24;;;;;;;41.37;28.87;;;;;;;;;;5047740;28;20037;-63
2024/01/26 04:44:50;;;;;;;39.97;25.57;;;;;;;;;;5048332;28;20056;-63
2024/01/26 04:47:16;;;;;;;42.20;26.30;;;;;;;;;;5047573;28;20045;-64
2024/01/26 04:49:43;;;;;;;48.80;28.97;;;;;;;;;;5028716;28;20419;-63
2024/01/26 04:52:09;;;;;;;50.57;29.57;;;;;;;;;;5028013;28;20046;-63
2024/01/26 04:54:37;;;;;;;45.53;26.97;;;;;;;;;;5028346;28;20176;-63
2024/01/26 04:57:03;;;;;;;43.83;29.57;;;;;;;;;;5028174;28;20119;-64
2024/01/26 04:59:31;;;;;;;36.93;25.63;;;;;;;;;;5028279;28;20060;-64
2024/01/26 05:01:57;;;;;;;41.47;27.00;;;;;;;;;;5027963;28;20415;-64
2024/01/26 05:04:23;;;;;;;38.53;25.50;;;;;;;;;;5031458;28;20045;-64
2024/01/26 05:06:49;;;;;;;42.87;26.17;;;;;;;;;;5031999;28;20080;-64
2024/01/26 05:09:15;;;;;;;45.50;25.60;;;;;;;;;;5031749;28;20089;-64
2024/01/26 05:11:41;;;;;;;39.43;24.80;;;;;;;;;;5032466;28;20816;-63
2024/01/26 05:14:07;;;;;;;32.37;23.37;;;;;;;;;;5031272;28;20056;-64
2024/01/26 05:16:33;;;;;;;38.53;24.20;;;;;;;;;;5031892;28;20160;-63
2024/01/26 05:18:59;;;;;;;35.97;24.57;;;;;;;;;;5031357;28;20132;-64
2024/01/26 05:21:25;;;;;;;36.40;22.73;;;;;;;;;;5032620;28;20045;-63
2024/01/26 05:23:51;;;;;;;33.53;22.73;;;;;;;;;;5049917;28;20098;-63
2024/01/26 05:26:18;;;;;;;37.03;23.17;;;;;;;;;;5050855;28;20037;-64
2024/01/26 05:28:44;;;;;;;37.03;23.03;;;;;;;;;;5051217;28;20052;-63
2024/01/26 05:31:10;;;;;;;34.17;23.40;;;;;;;;;;5051323;28;20049;-63
2024/01/26 05:33:36;;;;;;;36.03;23.70;;;;;;;;;;5050905;28;20049;-64
2024/01/26 05:36:02;;;;;;;48.10;25.50;;;;;;;;;;5050026;28;20047;-63
2024/01/26 05:38:28;;;;;;;38.63;26.43;;;;;;;;;;5051057;28;20056;-64
2024/01/26 05:40:54;;;;;;;42.57;25.67;;;;;;;;;;5051109;28;20053;-64
2024/01/26 05:43:20;;;;;;;39.37;25.07;;;;;;;;;;5050828;28;20053;-64
2024/01/26 05:45:46;;;;;;;46.27;26.50;;;;;;;;;;5051015;28;20049;-64
2024/01/26 05:48:12;;;;;;;45.47;26.37;;;;;;;;;;5050465;28;20053;-64
2024/01/26 05:50:38;;;;;;;41.17;25.93;;;;;;;;;;5050858;28;20052;-64
2024/01/26 05:53:05;;;;;;;41.87;25.27;;;;;;;;;;5050954;28;20045;-64
2024/01/26 05:55:31;;;;;;;50.13;27.53;;;;;;;;;;5050795;28;20867;-64
2024/01/26 05:57:57;;;;;;;45.97;26.23;;;;;;;;;;5050567;28;20041;-63
2024/01/26 06:00:23;;;;;;;40.17;26.23;;;;;;;;;;5050584;28;20577;-63
2024/01/26 06:02:49;;;;;;;44.00;26.47;;;;;;;;;;5050391;28;20048;-64
2024/01/26 06:05:15;;;;;;;46.47;26.73;;;;;;;;;;5049478;28;20045;-64
2024/01/26 06:07:41;;;;;;;50.13;26.50;;;;;;;;;;5050640;28;20500;-64
2024/01/26 06:10:07;;;;;;;55.80;26.17;;;;;;;;;;5049482;28;20079;-64
2024/01/26 06:12:33;;;;;;;52.73;27.67;;;;;;;;;;5050843;28;20045;-64
2024/01/26 06:14:59;;;;;;;49.70;25.37;;;;;;;;;;5049566;28;20449;-64
2024/01/26 06:17:25;;;;;;;47.10;24.70;;;;;;;;;;5050519;28;20041;-64
2024/01/26 06:19:51;;;;;;;38.00;23.53;;;;;;;;;;5049870;28;20476;-64
2024/01/26 06:22:17;;;;;;;46.47;24.10;;;;;;;;;;5050752;28;20144;-64
2024/01/26 06:24:43;;;;;;;41.67;23.10;;;;;;;;;;5050531;28;20052;-64
2024/01/26 06:27:09;;;;;;;50.87;24.60;;;;;;;;;;5049943;28;20040;-64
2024/01/26 06:29:35;;;;;;;50.07;24.10;;;;;;;;;;5050032;28;20049;-63
2024/01/26 06:32:01;;;;;;;37.30;21.17;;;;;;;;;;5049883;28;20094;-64
2024/01/26 06:34:27;;;;;;;55.73;24.53;;;;;;;;;;5050004;28;20072;-64
2024/01/26 06:36:53;;;;;;;39.47;22.27;;;;;;;;;;5050193;28;20059;-64
2024/01/26 06:39:19;;;;;;;45.13;24.83;;;;;;;;;;5049620;28;20415;-65
2024/01/26 06:41:45;;;;;;;45.20;22.53;;;;;;;;;;5049420;28;20481;-65
2024/01/26 06:44:14;;;;;;;45.17;22.37;;;;;;;;;;5049948;28;20140;-65
2024/01/26 06:46:40;;;;;;;45.57;22.07;;;;;;;;;;5048487;28;20136;-65
2024/01/26 06:49:06;;;;;;;40.60;22.83;;;;;;;;;;5048468;28;20037;-64
2024/01/26 06:51:32;;;;;;;42.53;22.00;;;;;;;;;;5049616;28;20396;-64
2024/01/26 06:54:01;;;;;;;38.43;20.20;;;;;;;;;;5050079;28;20044;-64
2024/01/26 06:56:27;;;;;;;50.60;21.37;;;;;;;;;;5049649;28;20049;-65
2024/01/26 06:58:53;;;;;;;51.50;21.53;;;;;;;;;;5048745;28;20099;-65
2024/01/26 07:01:19;;;;;;;47.90;20.80;;;;;;;;;;5049188;28;20511;-64
2024/01/26 07:03:45;;;;;;;50.70;22.13;;;;;;;;;;5049520;28;20041;-65
2024/01/26 07:06:11;;;;;;;42.60;20.50;;;;;;;;;;5049675;28;20045;-65
2024/01/26 07:08:37;;;;;;;36.70;19.70;;;;;;;;;;5049514;28;20594;-65
2024/01/26 07:11:03;;;;;;;36.10;20.10;;;;;;;;;;5049413;28;20126;-64
2024/01/26 07:13:29;;;;;;;51.83;21.73;;;;;;;;;;5048079;28;20045;-65
2024/01/26 07:15:55;;;;;;;39.57;20.43;;;;;;;;;;5048128;28;20045;-65
2024/01/26 07:18:21;;;;;;;41.43;19.17;;;;;;;;;;5049347;28;20387;-65
2024/01/26 07:20:47;;;;;;;42.20;20.60;;;;;;;;;;5049222;28;20060;-65
2024/01/26 07:23:13;;;;;;;40.63;19.33;;;;;;;;;;5049315;28;20102;-64
2024/01/26 07:25:39;;;;;;;37.63;18.17;;;;;;;;;;5048524;28;20107;-64
2024/01/26 07:28:08;;;;;;;31.23;16.93;;;;;;;;;;5047488;28;20045;-64
2024/01/26 07:30:34;;;;;;;32.47;16.57;;;;;;;;;;5047046;28;20053;-64
2024/01/26 07:33:00;;;;;;;35.73;17.60;;;;;;;;;;5048926;28;20091;-64
2024/01/26 07:35:26;;;;;;;32.83;14.67;;;;;;;;;;5049051;28;20041;-64
2024/01/26 07:37:52;;;;;;;40.50;17.23;;;;;;;;;;5049177;28;20450;-65
2024/01/26 07:40:18;;;;;;;37.53;16.33;;;;;;;;;;5048684;28;20495;-65
2024/01/26 07:42:44;;;;;;;33.00;17.27;;;;;;;;;;5048402;28;20056;-65
2024/01/26 07:45:10;;;;;;;38.30;17.93;;;;;;;;;;5048368;28;20048;-64
2024/01/26 07:47:36;;;;;;;23.97;14.23;;;;;;;;;;5048595;28;20049;-64
2024/01/26 07:50:03;;;;;;;27.10;14.30;;;;;;;;;;5047924;28;20037;-64
2024/01/26 07:52:29;;;;;;;32.47;15.57;;;;;;;;;;5046025;28;20037;-64
2024/01/26 07:54:55;;;;;;;29.27;13.43;;;;;;;;;;5048781;28;20514;-64
2024/01/26 07:57:21;;;;;;;30.57;14.83;;;;;;;;;;5048705;28;20491;-65
2024/01/26 07:59:50;;;;;;;29.90;14.50;;;;;;;;;;5048789;28;20045;-64
2024/01/26 08:02:16;;;;;;;39.13;16.20;;;;;;;;;;5048511;28;20495;-65
2024/01/26 08:04:42;;;;;;;44.33;16.80;;;;;;;;;;5049185;28;20048;-65
2024/01/26 08:07:08;;;;;;;29.70;15.20;;;;;;;;;;5048847;28;20444;-65
2024/01/26 08:09:35;;;;;;;21.23;12.90;;;;;;;;;;5048803;28;20052;-65
2024/01/26 08:12:01;;;;;;;23.90;12.70;;;;;;;;;;5038237;28;20049;-65
2024/01/26 08:14:27;;;;;;;20.40;10.77;;;;;;;;;;5048357;28;20048;-65
2024/01/26 08:16:53;;;;;;;18.27;10.67;;;;;;;;;;5047726;28;20045;-65
2024/01/26 08:19:19;;;;;;;19.13;11.57;;;;;;;;;;5047923;28;20083;-65
2024/01/26 08:21:45;;;;;;;18.07;11.17;;;;;;;;;;5047851;28;20044;-65
2024/01/26 08:24:11;;;;;;;20.97;12.03;;;;;;;;;;5046545;28;20407;-65
2024/01/26 08:26:38;;;;;;;19.90;12.63;;;;;;;;;;5047493;28;20144;-65
2024/01/26 08:29:04;;;;;;;22.60;12.53;;;;;;;;;;5047215;28;20063;-65
2024/01/26 08:31:30;;;;;;;22.30;13.50;;;;;;;;;;5048323;28;20060;-65
2024/01/26 08:33:56;;;;;;;24.17;14.07;;;;;;;;;;5047388;28;20045;-65
2024/01/26 08:36:22;;;;;;;22.67;14.40;;;;;;;;;;5048262;28;20154;-66
2024/01/26 08:38:49;;;;;;;20.97;13.87;;;;;;;;;;5049170;28;20075;-65
2024/01/26 08:41:16;;;;;;;26.30;15.13;;;;;;;;;;5051840;28;20051;-64
2024/01/26 08:43:43;;;;;;;20.90;15.60;;;;;;;;;;5045915;28;20063;-65
2024/01/26 08:46:10;;;;;;;29.40;16.57;;;;;;;;;;5049278;28;20057;-65
2024/01/26 08:48:36;;;;;;;28.97;17.20;;;;;;;;;;5050551;28;20049;-65
2024/01/26 08:51:02;;;;;;;37.47;19.37;;;;;;;;;;5050912;28;20494;-65
2024/01/26 08:53:28;;;;;;;32.00;19.97;;;;;;;;;;5049757;28;20463;-65
2024/01/26 08:55:54;;;;;;;33.13;19.83;;;;;;;;;;5050424;28;20067;-65
2024/01/26 08:58:20;;;;;;;36.10;20.43;;;;;;;;;;5049324;28;20037;-65
2024/01/26 09:00:46;;;;;;;33.57;20.33;;;;;;;;;;5050119;28;20041;-65
2024/01/26 09:03:12;;;;;;;33.97;20.87;;;;;;;;;;5051746;28;20124;-65
2024/01/26 09:05:38;;;;;;;33.07;21.60;;;;;;;;;;5051264;28;20132;-65
2024/01/26 09:08:04;;;;;;;33.03;21.77;;;;;;;;;;5051149;28;20048;-65
2024/01/26 09:10:30;;;;;;;30.40;23.17;;;;;;;;;;5050832;28;20799;-64
2024/01/26 09:12:57;;;;;;;29.47;19.80;;;;;;;;;;5050974;28;20044;-65
2024/01/26 09:15:23;;;;;;;35.27;21.03;;;;;;;;;;5051212;28;20523;-65
2024/01/26 09:17:49;;;;;;;46.90;23.30;;;;;;;;;;5050825;28;20044;-65
2024/01/26 09:20:15;;;;;;;47.67;24.07;;;;;;;;;;5051411;28;20041;-65
2024/01/26 09:22:41;;;;;;;52.40;22.47;;;;;;;;;;5051468;28;20464;-66
2024/01/26 09:25:08;;;;;;;29.83;15.47;;;;;;;;;;5051171;28;20127;-66
2024/01/26 09:27:34;;;;;;;15.60;9.97;;;;;;;;;;5049859;28;20844;-65
2024/01/26 09:30:01;;;;;;;17.23;5.40;;;;;;;;;;5051034;28;20112;-66
2024/01/26 09:32:27;;;;;;;6.40;1.80;;;;;;;;;;5051271;28;20510;-66
2024/01/26 09:34:53;;;;;;;8.00;2.67;;;;;;;;;;5051875;28;20049;-65
2024/01/26 09:37:20;;;;;;;4.13;1.50;;;;;;;;;;5050995;28;20099;-65
2024/01/26 09:39:46;;;;;;;5.00;1.30;;;;;;;;;;5051073;28;20110;-65
2024/01/26 09:42:12;;;;;;;5.77;1.43;;;;;;;;;;5051057;28;20041;-65
2024/01/26 09:44:38;;;;;;;5.00;1.27;;;;;;;;;;5050892;28;20056;-65
2024/01/26 09:47:08;;;;;;;4.07;0.80;;;;;;;;;;5050595;28;20123;-65
2024/01/26 09:49:36;;;;;;;6.27;0.80;;;;;;;;;;5050332;28;20140;-65
2024/01/26 09:52:03;;;;;;;7.60;1.20;;;;;;;;;;5050598;28;20053;-64
2024/01/26 09:54:29;;;;;;;7.10;1.07;;;;;;;;;;5051078;28;20633;-65
2024/01/26 09:56:55;;;;;;;10.17;1.20;;;;;;;;;;5051178;28;20685;-65
2024/01/26 09:59:21;;;;;;;8.27;1.20;;;;;;;;;;5050465;28;20053;-65
2024/01/26 10:01:49;;;;;;;10.00;1.97;;;;;;;;;;5051221;28;20049;-65
2024/01/26 10:04:15;;;;;;;8.13;1.23;;;;;;;;;;5050601;28;20236;-65
2024/01/26 10:06:41;;;;;;;13.80;3.00;;;;;;;;;;5050485;28;20183;-64
2024/01/26 10:09:09;;;;;;;10.07;1.77;;;;;;;;;;5049492;28;20412;-64
2024/01/26 10:11:35;;;;;;;17.57;1.90;;;;;;;;;;5050385;28;20103;-65
2024/01/26 10:14:02;;;;;;;10.97;1.90;;;;;;;;;;5050228;28;20494;-64
2024/01/26 10:16:28;;;;;;;13.17;1.63;;;;;;;;;;5050481;28;20468;-65
2024/01/26 10:18:54;;;;;;;8.53;1.80;;;;;;;;;;5050367;28;20132;-65
2024/01/26 10:21:22;;;;;;;13.27;2.33;;;;;;;;;;5050053;28;20072;-64
2024/01/26 10:23:48;;;;;;;15.50;2.33;;;;;;;;;;5050079;28;20049;-64
2024/01/26 10:26:14;;;;;;;17.43;2.10;;;;;;;;;;5050166;28;20046;-64
2024/01/26 10:28:40;;;;;;;22.37;3.60;;;;;;;;;;5050173;28;20057;-64
2024/01/26 10:31:06;;;;;;;18.57;4.33;;;;;;;;;;5050089;28;20041;-64
2024/01/26 10:33:32;;;;;;;19.10;3.20;;;;;;;;;;5049809;28;20135;-64
2024/01/26 10:36:00;;;;;;;15.60;3.00;;;;;;;;;;5049954;28;20049;-64
2024/01/26 10:38:27;;;;;;;20.60;2.80;;;;;;;;;;5050142;28;20052;-64
2024/01/26 10:41:02;;;;;;;20.67;3.07;;;;;;;;;;5049586;28;20048;-64
2024/01/26 10:43:28;;;;;;;25.57;4.07;;;;;;;;;;5049597;28;20049;-64
2024/01/26 10:45:56;;;;;;;23.47;2.90;;;;;;;;;;5049428;28;20049;-64
2024/01/26 10:48:22;;;;;;;20.83;2.97;;;;;;;;;;5049808;28;20049;-64
2024/01/26 10:50:48;;;;;;;21.27;3.03;;;;;;;;;;5049873;28;20702;-64
2024/01/26 10:53:15;;;;;;;21.57;3.50;;;;;;;;;;5048220;28;20434;-64
2024/01/26 10:55:41;;;;;;;19.70;3.47;;;;;;;;;;5049794;28;20044;-64
2024/01/26 10:58:07;;;;;;;20.93;2.70;;;;;;;;;;5049231;28;20091;-64
2024/01/26 11:00:34;;;;;;;22.13;4.00;;;;;;;;;;5049340;28;20041;-64
2024/01/26 11:03:02;;;;;;;22.63;3.60;;;;;;;;;;5049402;28;20049;-64
2024/01/26 11:05:28;;;;;;;16.40;3.40;;;;;;;;;;5049890;28;20060;-64
2024/01/26 11:07:55;;;;;;;25.10;3.40;;;;;;;;;;5049381;28;20056;-64
2024/01/26 11:10:25;;;;;;;25.33;4.17;;;;;;;;;;5049083;28;20419;-64
2024/01/26 11:13:05;;;;;;;15.90;3.60;;;;;;;;;;5049205;28;20049;-64
2024/01/26 11:15:32;;;;;;;21.40;3.03;;;;;;;;;;5049635;28;20696;-64
2024/01/26 11:17:58;;;;;;;14.27;3.27;;;;;;;;;;5049261;28;20051;-64
2024/01/26 11:20:32;;;;;;;22.67;3.70;;;;;;;;;;5049436;28;20455;-64
2024/01/26 11:22:58;;;;;;;;;;;;;;;;;;5049563;28;20044;-64
2024/01/26 11:25:24;;;;;;;23.03;4.33;;;;;;;;;;5048912;28;19921;-64
2024/01/26 11:27:59;;;;;;;25.17;3.93;;;;;;;;;;5049480;28;20509;-64
2024/01/26 11:30:25;;;;;;;21.13;3.27;;;;;;;;;;5048992;28;20041;-64
2024/01/26 11:32:52;;;;;;;25.63;3.73;;;;;;;;;;5049066;28;20103;-64
2024/01/26 11:35:19;;;;;;;32.50;4.60;;;;;;;;;;5048742;28;20053;-64
2024/01/26 11:37:46;;;;;;;24.53;4.10;;;;;;;;;;5048331;28;20503;-64
2024/01/26 11:40:12;;;;;;;12.57;2.97;;;;;;;;;;5048696;28;20057;-64
2024/01/26 11:42:38;;;;;;;23.67;3.43;;;;;;;;;;5048965;28;20479;-64
2024/01/26 11:45:08;;;;;;;26.27;3.87;;;;;;;;;;5048452;28;20131;-64
2024/01/26 11:47:35;;;;;;;38.10;5.37;;;;;;;;;;5048464;28;20059;-64
2024/01/26 11:50:01;;;;;;;20.83;3.33;;;;;;;;;;5047980;28;20347;-64
2024/01/26 11:52:27;;;;;;;22.37;4.00;;;;;;;;;;5048647;28;20049;-64
2024/01/26 11:54:53;;;;;;;22.27;4.30;;;;;;;;;;5048593;28;20088;-64
2024/01/26 11:57:19;;;;;;;21.57;3.60;;;;;;;;;;5048435;28;20110;-64
2024/01/26 11:59:45;;;;;;;24.13;4.47;;;;;;;;;;5048474;28;20069;-64
2024/01/26 12:02:11;;;;;;;21.57;4.00;;;;;;;;;;5048027;28;20041;-64
2024/01/26 12:04:37;;;;;;;23.30;4.20;;;;;;;;;;5048618;28;20045;-64
2024/01/26 12:07:04;;;;;;;28.00;6.20;;;;;;;;;;5048351;28;20094;-65
2024/01/26 12:09:29;;;;;;;20.07;4.07;;;;;;;;;;5048619;28;20530;-64
2024/01/26 12:11:56;;;;;;;26.47;4.67;;;;;;;;;;5046607;28;20100;-64
2024/01/26 12:14:22;;;;;;;23.73;4.33;;;;;;;;;;5048084;28;20067;-64
2024/01/26 12:16:48;;;;;;;19.87;3.93;;;;;;;;;;5046861;28;20419;-64
2024/01/26 12:19:15;;;;;;;25.77;3.77;;;;;;;;;;5048117;28;20507;-64
2024/01/26 12:21:41;;;;;;;19.73;3.20;;;;;;;;;;5047343;28;20052;-64
2024/01/26 12:24:11;;;;;;;18.53;3.80;;;;;;;;;;5048636;28;20055;-64
2024/01/26 12:26:37;;;;;;;26.63;4.03;;;;;;;;;;5048329;28;20045;-64
2024/01/26 12:29:03;;;;;;;14.53;3.20;;;;;;;;;;5030728;28;20053;-65
2024/01/26 12:31:32;;;;;;;21.97;4.70;;;;;;;;;;5044181;28;20046;-64
2024/01/26 12:33:59;;;;;;;19.47;3.43;;;;;;;;;;5028401;28;20054;-64
2024/01/26 12:36:32;;;;;;;24.57;4.90;;;;;;;;;;5028774;28;20049;-65
2024/01/26 12:39:01;;;;;;;17.27;3.03;;;;;;;;;;5043270;28;20056;-64
2024/01/26 12:41:27;;;;;;;18.27;3.40;;;;;;;;;;5048371;28;20132;-64
2024/01/26 12:43:54;;;;;;;20.23;3.77;;;;;;;;;;5048221;28;20080;-65
2024/01/26 12:46:20;;;;;;;28.87;7.63;;;;;;;;;;5045229;28;20368;-65
2024/01/26 12:48:47;;;;;;;22.23;3.70;;;;;;;;;;5047964;28;20053;-64
2024/01/26 12:51:13;;;;;;;17.70;3.50;;;;;;;;;;5047765;28;20060;-65
2024/01/26 12:53:39;;;;;;;22.20;4.63;;;;;;;;;;5032501;28;20048;-64
2024/01/26 12:56:05;;;;;;;30.70;5.13;;;;;;;;;;5046810;28;20059;-65
2024/01/26 12:58:31;;;;;;;24.13;4.13;;;;;;;;;;5046520;28;20483;-64
2024/01/26 13:00:57;;;;;;;23.70;4.63;;;;;;;;;;5046894;28;20045;-65
2024/01/26 13:03:26;;;;;;;16.67;2.90;;;;;;;;;;5047762;28;20045;-64
2024/01/26 13:05:52;;;;;;;21.23;4.30;;;;;;;;;;5047845;28;20484;-65
2024/01/26 13:08:20;;;;;;;25.80;4.20;;;;;;;;;;5047489;28;20045;-65
2024/01/26 13:10:46;;;;;;;19.73;4.57;;;;;;;;;;5047373;28;20045;-65
2024/01/26 13:13:13;;;;;;;17.23;4.53;;;;;;;;;;5047276;28;20045;-65
2024/01/26 13:15:39;;;;;;;16.33;2.97;;;;;;;;;;5044658;28;20055;-65
2024/01/26 13:18:06;;;;;;;14.23;3.00;;;;;;;;;;5046594;28;20128;-65
2024/01/26 13:20:32;;;;;;;17.20;4.10;;;;;;;;;;5045973;28;20053;-65
2024/01/26 13:22:58;;;;;;;12.60;2.57;;;;;;;;;;5046377;28;20041;-65
2024/01/26 13:25:25;;;;;;;15.43;2.50;;;;;;;;;;5049075;28;20087;-65
2024/01/26 13:27:51;;;;;;;10.37;2.70;;;;;;;;;;5051565;28;20480;-65
2024/01/26 13:30:17;;;;;;;13.47;2.27;;;;;;;;;;5050842;28;20048;-65
2024/01/26 13:32:43;;;;;;;12.80;2.90;;;;;;;;;;5051006;28;20088;-65
2024/01/26 13:35:09;;;;;;;12.23;2.17;;;;;;;;;;5050956;28;20045;-65
2024/01/26 13:37:36;;;;;;;11.37;1.90;;;;;;;;;;5050958;28;20037;-65
2024/01/26 13:40:05;;;;;;;14.60;2.13;;;;;;;;;;5050973;28;20400;-65
2024/01/26 13:42:32;;;;;;;9.73;1.27;;;;;;;;;;5050957;28;20080;-65
2024/01/26 13:44:59;;;;;;;4.77;0.93;;;;;;;;;;5050530;28;20041;-65
2024/01/26 13:47:26;;;;;;;11.53;2.07;;;;;;;;;;5050759;28;20554;-65
2024/01/26 13:49:54;;;;;;;8.13;1.40;;;;;;;;;;5050481;28;20084;-65
2024/01/26 13:52:20;;;;;;;9.00;1.60;;;;;;;;;;5050745;28;20056;-65
2024/01/26 13:54:46;;;;;;;11.43;3.00;;;;;;;;;;5051061;28;20410;-65
2024/01/26 13:57:15;;;;;;;11.13;2.37;;;;;;;;;;5050464;28;20079;-65
2024/01/26 13:59:41;;;;;;;11.60;2.33;;;;;;;;;;5050595;28;20423;-65
2024/01/26 14:02:07;;;;;;;15.10;2.70;;;;;;;;;;5050317;28;20422;-65
2024/01/26 14:04:33;;;;;;;14.10;2.20;;;;;;;;;;5050790;28;20392;-65
2024/01/26 14:07:00;;;;;;;14.00;2.20;;;;;;;;;;5050543;28;20116;-65
2024/01/26 14:09:26;;;;;;;11.53;2.67;;;;;;;;;;5051134;28;20490;-65
2024/01/26 14:11:53;;;;;;;13.57;3.20;;;;;;;;;;5050426;28;20537;-65
2024/01/26 14:14:22;;;;;;;17.47;3.47;;;;;;;;;;5050722;28;20076;-65
2024/01/26 14:16:48;;;;;;;19.80;3.33;;;;;;;;;;5050032;28;20053;-65